N808JB KCLT-KCLT
Flight info
| Callsign | N808JB |
|---|---|
| Flight time | 0h 29m |
| Altitude | 1700 |
| Route | KCLT KCLT |
| Aircraft | SR22/L-V/N |
Departure
| Time | 2026-05-07 01:23 |
|---|---|
| Airport | Charlotte Douglas International Airport (KCLT) |
Arrival
| Time | 2026-05-07 01:52 |
|---|---|
| Airport | Charlotte Douglas International Airport (KCLT) |
| Time | Latitude | Longitude | Altitude | Speed | Heading |
|---|---|---|---|---|---|
| 2026-05-07 01:01 | 35.20828 | -80.93266 | 707 ft | 0 kts | 86° |
| 2026-05-07 01:16 | 35.20828 | -80.93258 | 707 ft | 3 kts | 89° |
| 2026-05-07 01:17 | 35.20817 | -80.93257 | 706 ft | 0 kts | 210° |
| 2026-05-07 01:17 | 35.20804 | -80.93274 | 707 ft | 4 kts | 240° |
| 2026-05-07 01:17 | 35.20793 | -80.93307 | 708 ft | 3 kts | 259° |
| 2026-05-07 01:17 | 35.20796 | -80.93327 | 709 ft | 3 kts | 303° |
| 2026-05-07 01:18 | 35.20833 | -80.93343 | 711 ft | 8 kts | 355° |
| 2026-05-07 01:18 | 35.20934 | -80.93350 | 713 ft | 20 kts | 358° |
| 2026-05-07 01:18 | 35.21077 | -80.93362 | 716 ft | 20 kts | 355° |
| 2026-05-07 01:18 | 35.21215 | -80.93374 | 719 ft | 20 kts | 354° |
| 2026-05-07 01:19 | 35.21356 | -80.93386 | 722 ft | 19 kts | 355° |
| 2026-05-07 01:19 | 35.21489 | -80.93398 | 725 ft | 18 kts | 356° |
| 2026-05-07 01:19 | 35.21610 | -80.93407 | 727 ft | 16 kts | 359° |
| 2026-05-07 01:19 | 35.21746 | -80.93420 | 729 ft | 22 kts | 356° |
| 2026-05-07 01:20 | 35.21899 | -80.93427 | 730 ft | 18 kts | 9° |
| 2026-05-07 01:20 | 35.22029 | -80.93394 | 731 ft | 19 kts | 9° |
| 2026-05-07 01:20 | 35.22167 | -80.93389 | 731 ft | 21 kts | 355° |
| 2026-05-07 01:20 | 35.22327 | -80.93403 | 732 ft | 21 kts | 356° |
| 2026-05-07 01:21 | 35.22453 | -80.93412 | 731 ft | 15 kts | 359° |
| 2026-05-07 01:21 | 35.22512 | -80.93434 | 731 ft | 4 kts | 310° |
| 2026-05-07 01:21 | 35.22521 | -80.93464 | 732 ft | 5 kts | 271° |
| 2026-05-07 01:21 | 35.22520 | -80.93487 | 733 ft | 0 kts | 269° |
| 2026-05-07 01:22 | 35.22518 | -80.93524 | 733 ft | 10 kts | 266° |
| 2026-05-07 01:22 | 35.22497 | -80.93609 | 733 ft | 8 kts | 210° |
| 2026-05-07 01:22 | 35.22320 | -80.93606 | 733 ft | 60 kts | 175° |
| 2026-05-07 01:22 | 35.21756 | -80.93554 | 917 ft | 88 kts | 176° |
| 2026-05-07 01:23 | 35.21144 | -80.93501 | 1214 ft | 96 kts | 177° |
| 2026-05-07 01:23 | 35.20424 | -80.93405 | 1503 ft | 104 kts | 177° |
| 2026-05-07 01:23 | 35.19756 | -80.93124 | 1709 ft | 104 kts | 144° |
| 2026-05-07 01:23 | 35.19436 | -80.92328 | 1773 ft | 115 kts | 90° |
| 2026-05-07 01:24 | 35.19582 | -80.91296 | 1725 ft | 128 kts | 79° |
| 2026-05-07 01:24 | 35.19999 | -80.90358 | 1754 ft | 128 kts | 32° |
| 2026-05-07 01:24 | 35.20825 | -80.90041 | 1738 ft | 125 kts | 351° |
| 2026-05-07 01:24 | 35.21699 | -80.90152 | 1725 ft | 126 kts | 344° |
| 2026-05-07 01:25 | 35.22552 | -80.90344 | 1763 ft | 124 kts | 342° |
| 2026-05-07 01:25 | 35.23420 | -80.90401 | 1784 ft | 123 kts | 354° |
| 2026-05-07 01:25 | 35.24278 | -80.90404 | 1775 ft | 124 kts | 353° |
| 2026-05-07 01:25 | 35.25135 | -80.90379 | 1769 ft | 121 kts | 356° |
| 2026-05-07 01:26 | 35.25908 | -80.90495 | 1772 ft | 105 kts | 325° |
| 2026-05-07 01:26 | 35.26270 | -80.91162 | 1695 ft | 91 kts | 272° |
| 2026-05-07 01:26 | 35.26245 | -80.91924 | 1643 ft | 86 kts | 262° |
| 2026-05-07 01:26 | 35.26186 | -80.92647 | 1565 ft | 87 kts | 263° |
| 2026-05-07 01:27 | 35.26097 | -80.93393 | 1445 ft | 93 kts | 259° |
| 2026-05-07 01:27 | 35.25982 | -80.94160 | 1414 ft | 88 kts | 261° |
| 2026-05-07 01:27 | 35.25928 | -80.94905 | 1347 ft | 87 kts | 264° |
| 2026-05-07 01:27 | 35.25734 | -80.95582 | 1266 ft | 89 kts | 219° |
| 2026-05-07 01:28 | 35.25105 | -80.95598 | 1182 ft | 97 kts | 167° |
| 2026-05-07 01:28 | 35.24441 | -80.95467 | 1159 ft | 96 kts | 190° |
| 2026-05-07 01:28 | 35.24040 | -80.96061 | 1246 ft | 97 kts | 250° |
| 2026-05-07 01:28 | 35.23555 | -80.96689 | 1149 ft | 105 kts | 205° |
| 2026-05-07 01:29 | 35.22870 | -80.96764 | 886 ft | 96 kts | 179° |
| 2026-05-07 01:29 | 35.22249 | -80.96716 | 721 ft | 78 kts | 178° |
| 2026-05-07 01:29 | 35.21777 | -80.96677 | 709 ft | 62 kts | 175° |
| 2026-05-07 01:29 | 35.21178 | -80.96622 | 843 ft | 96 kts | 176° |
| 2026-05-07 01:30 | 35.20566 | -80.96596 | 1283 ft | 85 kts | 183° |
| 2026-05-07 01:30 | 35.19925 | -80.96562 | 1484 ft | 105 kts | 184° |
| 2026-05-07 01:30 | 35.19186 | -80.96802 | 1652 ft | 113 kts | 232° |
| 2026-05-07 01:30 | 35.18961 | -80.97707 | 1656 ft | 117 kts | 261° |
| 2026-05-07 01:31 | 35.18892 | -80.98709 | 1703 ft | 116 kts | 265° |
| 2026-05-07 01:31 | 35.18955 | -80.99694 | 1691 ft | 123 kts | 296° |
| 2026-05-07 01:31 | 35.19743 | -81.00139 | 1669 ft | 138 kts | 5° |
| 2026-05-07 01:31 | 35.20698 | -80.99961 | 1681 ft | 138 kts | 2° |
| 2026-05-07 01:32 | 35.21659 | -80.99818 | 1674 ft | 140 kts | 3° |
| 2026-05-07 01:32 | 35.22619 | -80.99649 | 1689 ft | 140 kts | 5° |
| 2026-05-07 01:32 | 35.23509 | -80.99487 | 1716 ft | 115 kts | 1° |
| 2026-05-07 01:32 | 35.24274 | -80.99377 | 1598 ft | 111 kts | 1° |
| 2026-05-07 01:33 | 35.24941 | -80.98953 | 1447 ft | 118 kts | 54° |
| 2026-05-07 01:33 | 35.25074 | -80.98052 | 1416 ft | 109 kts | 90° |
| 2026-05-07 01:33 | 35.24883 | -80.97164 | 1200 ft | 112 kts | 137° |
| 2026-05-07 01:33 | 35.24185 | -80.96851 | 1016 ft | 105 kts | 181° |
| 2026-05-07 01:34 | 35.23489 | -80.96811 | 946 ft | 95 kts | 178° |
| 2026-05-07 01:34 | 35.22847 | -80.96764 | 833 ft | 92 kts | 178° |
| 2026-05-07 01:34 | 35.22226 | -80.96711 | 722 ft | 81 kts | 178° |
| 2026-05-07 01:34 | 35.21733 | -80.96673 | 709 ft | 61 kts | 177° |
| 2026-05-07 01:35 | 35.21254 | -80.96636 | 748 ft | 86 kts | 176° |
| 2026-05-07 01:35 | 35.20623 | -80.96571 | 1064 ft | 92 kts | 176° |
| 2026-05-07 01:35 | 35.19956 | -80.96508 | 1307 ft | 107 kts | 178° |
| 2026-05-07 01:35 | 35.19224 | -80.96634 | 1562 ft | 108 kts | 221° |
| 2026-05-07 01:36 | 35.18936 | -80.97443 | 1646 ft | 109 kts | 268° |
| 2026-05-07 01:36 | 35.18927 | -80.98395 | 1659 ft | 114 kts | 268° |
| 2026-05-07 01:36 | 35.18906 | -80.99372 | 1683 ft | 115 kts | 271° |
| 2026-05-07 01:36 | 35.19391 | -81.00085 | 1619 ft | 131 kts | 347° |
| 2026-05-07 01:37 | 35.20310 | -81.00108 | 1662 ft | 131 kts | 354° |
| 2026-05-07 01:37 | 35.21227 | -81.00145 | 1675 ft | 132 kts | 352° |
| 2026-05-07 01:37 | 35.22129 | -81.00210 | 1713 ft | 129 kts | 349° |
| 2026-05-07 01:37 | 35.23046 | -81.00286 | 1706 ft | 124 kts | 352° |
| 2026-05-07 01:38 | 35.23842 | -81.00311 | 1627 ft | 105 kts | 355° |
| 2026-05-07 01:38 | 35.24528 | -81.00298 | 1528 ft | 99 kts | 354° |
| 2026-05-07 01:38 | 35.24960 | -80.99680 | 1381 ft | 109 kts | 89° |
| 2026-05-07 01:38 | 35.24998 | -80.98811 | 1402 ft | 96 kts | 87° |
| 2026-05-07 01:39 | 35.25023 | -80.98007 | 1360 ft | 91 kts | 101° |
| 2026-05-07 01:39 | 35.24676 | -80.97342 | 1183 ft | 101 kts | 140° |
| 2026-05-07 01:39 | 35.24078 | -80.96873 | 1024 ft | 101 kts | 166° |
| 2026-05-07 01:39 | 35.23389 | -80.96815 | 902 ft | 100 kts | 181° |
| 2026-05-07 01:40 | 35.22699 | -80.96753 | 809 ft | 99 kts | 180° |
| 2026-05-07 01:40 | 35.22046 | -80.96695 | 718 ft | 80 kts | 180° |
| 2026-05-07 01:40 | 35.21555 | -80.96659 | 706 ft | 71 kts | 173° |
| 2026-05-07 01:40 | 35.20900 | -80.96600 | 837 ft | 103 kts | 176° |
| 2026-05-07 01:41 | 35.20211 | -80.96536 | 1196 ft | 107 kts | 179° |
| 2026-05-07 01:41 | 35.19454 | -80.96510 | 1482 ft | 113 kts | 198° |
| 2026-05-07 01:41 | 35.18973 | -80.97142 | 1621 ft | 107 kts | 272° |
| 2026-05-07 01:41 | 35.18913 | -80.98027 | 1669 ft | 109 kts | 265° |
| 2026-05-07 01:42 | 35.18846 | -80.98974 | 1658 ft | 114 kts | 266° |
| 2026-05-07 01:42 | 35.18774 | -80.99972 | 1644 ft | 119 kts | 268° |
| 2026-05-07 01:42 | 35.19260 | -81.00749 | 1651 ft | 129 kts | 342° |
| 2026-05-07 01:42 | 35.20206 | -81.00732 | 1589 ft | 139 kts | 4° |
| 2026-05-07 01:43 | 35.21151 | -81.00544 | 1612 ft | 139 kts | 3° |
| 2026-05-07 01:43 | 35.22110 | -81.00436 | 1625 ft | 138 kts | 358° |
| 2026-05-07 01:43 | 35.23064 | -81.00378 | 1632 ft | 133 kts | 358° |
| 2026-05-07 01:43 | 35.23905 | -81.00324 | 1660 ft | 110 kts | 355° |
| 2026-05-07 01:44 | 35.24655 | -81.00342 | 1511 ft | 102 kts | 351° |
| 2026-05-07 01:44 | 35.25267 | -80.99998 | 1335 ft | 111 kts | 58° |
| 2026-05-07 01:44 | 35.25358 | -80.99088 | 1225 ft | 104 kts | 90° |
| 2026-05-07 01:44 | 35.25338 | -80.98248 | 1162 ft | 94 kts | 91° |
| 2026-05-07 01:45 | 35.25245 | -80.97463 | 1065 ft | 95 kts | 121° |
| 2026-05-07 01:45 | 35.24721 | -80.96966 | 991 ft | 92 kts | 163° |
| 2026-05-07 01:45 | 35.24113 | -80.96856 | 973 ft | 89 kts | 184° |
| 2026-05-07 01:45 | 35.23460 | -80.96811 | 976 ft | 99 kts | 180° |
| 2026-05-07 01:46 | 35.22755 | -80.96757 | 898 ft | 104 kts | 180° |
| 2026-05-07 01:46 | 35.22049 | -80.96696 | 727 ft | 94 kts | 179° |
| 2026-05-07 01:46 | 35.21492 | -80.96654 | 705 ft | 68 kts | 176° |
| 2026-05-07 01:46 | 35.21063 | -80.96615 | 710 ft | 67 kts | 176° |
| 2026-05-07 01:47 | 35.20443 | -80.96557 | 888 ft | 97 kts | 176° |
| 2026-05-07 01:47 | 35.19785 | -80.96500 | 1213 ft | 104 kts | 180° |
| 2026-05-07 01:47 | 35.19073 | -80.96665 | 1498 ft | 106 kts | 226° |
| 2026-05-07 01:47 | 35.18794 | -80.97446 | 1703 ft | 102 kts | 261° |
| 2026-05-07 01:48 | 35.18747 | -80.98358 | 1686 ft | 111 kts | 266° |
| 2026-05-07 01:48 | 35.18671 | -80.99304 | 1692 ft | 113 kts | 272° |
| 2026-05-07 01:48 | 35.19109 | -81.00085 | 1670 ft | 122 kts | 327° |
| 2026-05-07 01:48 | 35.19978 | -81.00208 | 1612 ft | 135 kts | 2° |
| 2026-05-07 01:49 | 35.20911 | -81.00049 | 1652 ft | 133 kts | 2° |
| 2026-05-07 01:49 | 35.21829 | -80.99927 | 1680 ft | 125 kts | 1° |
| 2026-05-07 01:49 | 35.22658 | -80.99851 | 1684 ft | 111 kts | 357° |
| 2026-05-07 01:49 | 35.23397 | -80.99802 | 1578 ft | 103 kts | 357° |
| 2026-05-07 01:50 | 35.24088 | -80.99777 | 1484 ft | 97 kts | 353° |
| 2026-05-07 01:50 | 35.24753 | -80.99709 | 1414 ft | 94 kts | 25° |
| 2026-05-07 01:50 | 35.24984 | -80.98975 | 1341 ft | 94 kts | 83° |
| 2026-05-07 01:50 | 35.25042 | -80.98159 | 1247 ft | 96 kts | 83° |
| 2026-05-07 01:51 | 35.24948 | -80.97373 | 1174 ft | 96 kts | 131° |
| 2026-05-07 01:51 | 35.24379 | -80.96927 | 1027 ft | 99 kts | 165° |
| 2026-05-07 01:51 | 35.23711 | -80.96834 | 985 ft | 93 kts | 183° |
| 2026-05-07 01:51 | 35.23051 | -80.96783 | 893 ft | 98 kts | 179° |
| 2026-05-07 01:52 | 35.22389 | -80.96728 | 733 ft | 91 kts | 178° |
| 2026-05-07 01:52 | 35.21836 | -80.96684 | 711 ft | 68 kts | 179° |
| 2026-05-07 01:52 | 35.21430 | -80.96644 | 704 ft | 49 kts | 174° |
| 2026-05-07 01:52 | 35.21125 | -80.96621 | 707 ft | 37 kts | 179° |
| 2026-05-07 01:53 | 35.20932 | -80.96594 | 714 ft | 21 kts | 171° |
| 2026-05-07 01:53 | 35.20815 | -80.96538 | 716 ft | 17 kts | 151° |
| 2026-05-07 01:53 | 35.20726 | -80.96464 | 720 ft | 12 kts | 128° |
| 2026-05-07 01:53 | 35.20727 | -80.96368 | 722 ft | 13 kts | 89° |
| 2026-05-07 01:54 | 35.20733 | -80.96226 | 725 ft | 16 kts | 88° |
| 2026-05-07 01:54 | 35.20760 | -80.96094 | 724 ft | 18 kts | 51° |
| 2026-05-07 01:54 | 35.20866 | -80.95987 | 720 ft | 20 kts | 36° |
| 2026-05-07 01:54 | 35.20972 | -80.95891 | 720 ft | 16 kts | 32° |
| 2026-05-07 01:55 | 35.21062 | -80.95812 | 720 ft | 18 kts | 36° |
| 2026-05-07 01:55 | 35.21120 | -80.95703 | 720 ft | 15 kts | 78° |
| 2026-05-07 01:55 | 35.21130 | -80.95566 | 718 ft | 16 kts | 85° |
| 2026-05-07 01:55 | 35.21138 | -80.95421 | 714 ft | 16 kts | 86° |
| 2026-05-07 01:56 | 35.21143 | -80.95318 | 710 ft | 0 kts | 82° |
| 2026-05-07 01:58 | 35.21146 | -80.95281 | 709 ft | 17 kts | 85° |
| 2026-05-07 01:58 | 35.21156 | -80.95101 | 703 ft | 21 kts | 84° |
| 2026-05-07 01:58 | 35.21160 | -80.95034 | 702 ft | 0 kts | 84° |
| 2026-05-07 01:59 | 35.21161 | -80.95025 | 702 ft | 0 kts | 89° |